createdAt,value
2019-01-02T00:01:57.599Z,5.00
2019-01-02T00:04:31.207Z,5.00
2019-01-02T00:07:20.665Z,5.00
2019-01-02T00:09:54.431Z,5.00
2019-01-02T00:12:28.026Z,5.00
2019-01-02T00:15:01.720Z,5.00
2019-01-02T00:17:35.643Z,5.00
2019-01-02T00:20:13.507Z,5.00
2019-01-02T00:22:47.262Z,4.90
2019-01-02T00:25:34.867Z,5.00
2019-01-02T00:28:09.063Z,5.00
2019-01-02T00:30:42.730Z,5.10
2019-01-02T00:33:23.635Z,5.20
2019-01-02T00:35:57.665Z,5.10
2019-01-02T00:38:31.321Z,5.00
2019-01-02T00:41:08.623Z,5.00
2019-01-02T00:43:42.205Z,5.00
2019-01-02T00:46:16.274Z,5.10
2019-01-02T00:48:49.878Z,5.20
2019-01-02T00:51:23.586Z,5.20
2019-01-02T00:53:58.002Z,5.30
2019-01-02T00:56:38.103Z,5.30
2019-01-02T00:59:12.003Z,5.20
2019-01-02T01:01:45.649Z,5.40
2019-01-02T01:04:19.784Z,5.40
2019-01-02T01:06:54.191Z,5.50
2019-01-02T01:09:28.219Z,5.50
2019-01-02T01:12:01.924Z,5.50
2019-01-02T01:14:35.517Z,5.60
2019-01-02T01:17:09.202Z,5.60
2019-01-02T01:19:42.857Z,5.60
2019-01-02T01:22:20.038Z,5.60
2019-01-02T01:24:54.036Z,5.40
2019-01-02T01:27:36.096Z,5.40
2019-01-02T01:30:11.024Z,5.40
2019-01-02T01:32:44.649Z,4.70
2019-01-02T01:35:18.312Z,3.10
2019-01-02T01:37:52.295Z,2.80
2019-01-02T01:40:26.027Z,2.90
2019-01-02T01:43:05.983Z,2.90
2019-01-02T01:45:41.356Z,3.30
2019-01-02T01:48:20.143Z,3.10
2019-01-02T01:51:00.880Z,3.10
2019-01-02T01:53:35.126Z,2.90
2019-01-02T01:56:15.870Z,2.90
2019-01-02T02:01:22.836Z,3.30
2019-01-02T02:03:56.864Z,3.20
2019-01-02T02:06:33.571Z,3.20
2019-01-02T02:09:07.272Z,3.20
2019-01-02T02:11:41.169Z,3.50
2019-01-02T02:14:17.819Z,3.90
2019-01-02T02:16:51.467Z,4.50
2019-01-02T02:19:25.475Z,4.90
2019-01-02T02:22:02.148Z,4.90
2019-01-02T02:24:35.912Z,4.90
2019-01-02T02:27:18.242Z,4.90
2019-01-02T02:29:52.265Z,5.00
2019-01-02T02:32:26.233Z,4.90
2019-01-02T02:34:59.875Z,5.00
2019-01-02T02:37:33.536Z,5.00
2019-01-02T02:40:13.059Z,4.70
2019-01-02T02:42:46.723Z,4.60
2019-01-02T02:45:20.648Z,4.50
2019-01-02T02:47:54.651Z,4.40
2019-01-02T02:50:34.018Z,4.50
2019-01-02T02:53:08.070Z,4.20
2019-01-02T02:55:42.011Z,3.90
2019-01-02T02:58:34.070Z,3.90
2019-01-02T03:01:07.987Z,3.90
2019-01-02T03:03:51.087Z,3.70
2019-01-02T03:06:27.004Z,3.70
2019-01-02T03:09:00.334Z,3.80
2019-01-02T03:11:56.794Z,3.90
2019-01-02T03:14:30.447Z,3.90
2019-01-02T03:17:06.751Z,4.10
2019-01-02T03:19:40.739Z,4.40
2019-01-02T03:22:14.786Z,4.50
2019-01-02T03:24:48.667Z,4.60
2019-01-02T03:27:22.763Z,4.70
2019-01-02T03:29:56.756Z,4.70
2019-01-02T03:32:30.812Z,4.80
2019-01-02T03:35:07.031Z,4.80
2019-01-02T03:37:40.731Z,4.70
2019-01-02T03:40:17.932Z,4.40
2019-01-02T03:42:51.696Z,4.10
2019-01-02T03:45:51.689Z,4.10
2019-01-02T03:48:25.515Z,4.00
2019-01-02T03:50:59.449Z,4.20
2019-01-02T03:53:33.510Z,4.30
2019-01-02T03:56:07.102Z,4.40
2019-01-02T03:58:40.792Z,4.50
2019-01-02T04:01:14.454Z,4.50
2019-01-02T04:04:03.773Z,4.40
2019-01-02T04:06:37.431Z,4.50
2019-01-02T04:09:11.100Z,4.70
2019-01-02T04:11:47.898Z,4.60
2019-01-02T04:14:21.585Z,4.70
2019-01-02T04:16:55.167Z,4.80
2019-01-02T04:19:29.082Z,4.70
2019-01-02T04:22:02.665Z,4.80
2019-01-02T04:24:45.370Z,4.80
2019-01-02T04:27:19.029Z,4.80
2019-01-02T04:30:02.794Z,4.90
2019-01-02T04:32:36.382Z,4.90
2019-01-02T04:35:10.058Z,4.90
2019-01-02T04:37:43.950Z,4.90
2019-01-02T04:40:17.581Z,4.90
2019-01-02T04:42:51.167Z,4.90
2019-01-02T04:45:27.893Z,4.90
2019-01-02T04:48:01.475Z,4.90
2019-01-02T04:50:35.082Z,4.90
2019-01-02T04:53:08.666Z,4.80
2019-01-02T04:55:42.317Z,4.80
2019-01-02T04:58:15.965Z,4.80
2019-01-02T05:01:04.856Z,4.70
2019-01-02T05:03:38.445Z,4.60
2019-01-02T05:06:12.419Z,4.60
2019-01-02T05:08:58.062Z,4.60
2019-01-02T05:11:31.801Z,4.60
2019-01-02T05:14:05.647Z,4.50
2019-01-02T05:16:45.436Z,4.50
2019-01-02T05:19:19.322Z,4.40
2019-01-02T05:21:52.943Z,4.40
2019-01-02T05:24:38.600Z,4.40
2019-01-02T05:27:12.224Z,4.40
2019-01-02T05:29:45.814Z,4.40
2019-01-02T05:32:19.494Z,4.30
2019-01-02T05:34:53.171Z,4.30
2019-01-02T05:37:27.153Z,4.30
2019-01-02T05:40:05.901Z,4.20
2019-01-02T05:42:39.585Z,4.20
2019-01-02T05:45:13.261Z,4.30
2019-01-02T05:47:46.948Z,4.20
2019-01-02T05:50:20.592Z,4.20
2019-01-02T05:52:54.274Z,4.10
2019-01-02T05:55:27.868Z,4.20
2019-01-02T05:58:01.572Z,4.20
2019-01-02T06:00:39.805Z,4.20
2019-01-02T06:03:10.494Z,4.20
2019-01-02T06:05:44.168Z,4.20
2019-01-02T06:08:17.868Z,4.10
2019-01-02T06:10:51.456Z,4.10
2019-01-02T06:13:25.492Z,4.10
2019-01-02T06:15:59.064Z,4.10
2019-01-02T06:18:32.683Z,4.00
2019-01-02T06:21:06.406Z,4.10
2019-01-02T06:23:40.406Z,4.00
2019-01-02T06:26:17.118Z,4.10
2019-01-02T06:28:50.816Z,4.10
2019-01-02T06:31:24.394Z,4.00
2019-01-02T06:34:23.587Z,4.00
2019-01-02T06:36:57.240Z,4.00
2019-01-02T06:39:30.984Z,4.00
2019-01-02T06:42:04.665Z,4.00
2019-01-02T06:44:38.342Z,4.00
2019-01-02T06:47:11.931Z,4.00
2019-01-02T06:49:54.785Z,4.00
2019-01-02T06:52:28.375Z,4.00
2019-01-02T06:55:02.092Z,4.00
2019-01-02T06:57:35.672Z,4.00
2019-01-02T07:00:18.342Z,4.00
2019-01-02T07:02:53.077Z,4.00
2019-01-02T07:05:26.770Z,3.90
2019-01-02T07:08:06.597Z,4.00
2019-01-02T07:10:40.211Z,4.00
2019-01-02T07:13:13.800Z,4.00
2019-01-02T07:15:59.478Z,3.90
2019-01-02T07:18:33.062Z,3.90
2019-01-02T07:21:06.978Z,3.80
2019-01-02T07:23:40.570Z,3.80
2019-01-02T07:26:14.304Z,3.70
2019-01-02T07:28:47.849Z,3.70
2019-01-02T07:31:21.560Z,3.70
2019-01-02T07:34:00.574Z,3.60
2019-01-02T07:36:40.250Z,3.60
2019-01-02T07:39:31.917Z,3.60
2019-01-02T07:42:08.632Z,3.60
2019-01-02T07:44:45.291Z,3.50
2019-01-02T07:47:38.585Z,3.50
2019-01-02T07:50:47.124Z,3.50
2019-01-02T07:53:36.055Z,3.40
2019-01-02T07:56:27.957Z,3.50
2019-01-02T07:59:19.819Z,3.50
2019-01-02T08:02:14.505Z,3.40
2019-01-02T08:05:07.413Z,3.50
2019-01-02T08:10:59.813Z,3.50
2019-01-02T08:13:44.380Z,3.60
2019-01-02T08:19:27.026Z,3.60
2019-01-02T08:22:46.215Z,3.60
2019-01-02T08:25:28.791Z,3.60
2019-01-02T08:28:23.659Z,3.60
2019-01-02T08:34:21.203Z,3.60
2019-01-02T08:37:26.740Z,3.60
2019-01-02T08:40:29.381Z,3.60
2019-01-02T08:43:32.915Z,3.60
2019-01-02T08:46:29.212Z,3.60
2019-01-02T08:49:11.642Z,3.60
2019-01-02T08:52:04.636Z,3.60
2019-01-02T08:54:44.027Z,3.60
2019-01-02T08:57:53.815Z,3.60
2019-01-02T09:00:48.602Z,3.60
2019-01-02T09:03:53.378Z,3.60
2019-01-02T09:06:48.616Z,3.60
2019-01-02T09:09:50.514Z,3.70
2019-01-02T09:12:58.947Z,3.60
2019-01-02T09:15:38.878Z,3.70
2019-01-02T09:18:55.096Z,3.70
2019-01-02T09:21:52.035Z,3.70
2019-01-02T09:24:40.643Z,3.80
2019-01-02T09:27:35.653Z,4.00
2019-01-02T09:30:45.598Z,4.40
2019-01-02T09:33:34.027Z,4.70
2019-01-02T09:36:27.509Z,4.90
2019-01-02T09:39:19.007Z,5.00
2019-01-02T09:42:21.610Z,5.20
2019-01-02T09:45:28.224Z,5.40
2019-01-02T09:48:08.803Z,5.40
2019-01-02T09:50:45.542Z,5.50
2019-01-02T09:53:51.116Z,5.40
2019-01-02T09:56:44.279Z,5.40
2019-01-02T09:59:40.674Z,5.50
2019-01-02T10:02:23.343Z,5.80
2019-01-02T10:05:25.694Z,5.70
2019-01-02T10:08:35.806Z,5.80
2019-01-02T10:11:36.837Z,5.80
2019-01-02T10:14:53.014Z,6.10
2019-01-02T10:17:41.686Z,6.30
2019-01-02T10:20:36.982Z,6.20
2019-01-02T10:23:16.453Z,6.20
2019-01-02T10:26:14.127Z,6.40
2019-01-02T10:29:09.065Z,6.50
2019-01-02T10:31:57.632Z,6.30
2019-01-02T10:34:40.391Z,6.90
2019-01-02T10:37:32.483Z,6.50
2019-01-02T10:40:45.376Z,6.10
2019-01-02T10:43:34.364Z,6.70
2019-01-02T10:46:30.822Z,5.70
2019-01-02T10:49:28.825Z,5.10
2019-01-02T10:52:13.517Z,4.90
2019-01-02T10:54:55.931Z,4.50
2019-01-02T10:58:03.043Z,4.30
2019-01-02T11:01:05.109Z,4.20
2019-01-02T11:03:53.373Z,4.00
2019-01-02T11:06:47.954Z,3.90
2019-01-02T11:09:57.573Z,5.10
2019-01-02T11:12:39.974Z,5.50
2019-01-02T11:15:22.630Z,5.90
2019-01-02T11:18:18.915Z,6.60
2019-01-02T11:21:30.791Z,7.00
2019-01-02T11:24:30.199Z,5.90
2019-01-02T11:27:32.107Z,5.20
2019-01-02T11:30:36.167Z,5.10
2019-01-02T11:33:29.392Z,4.40
2019-01-02T11:36:12.256Z,4.50
2019-01-02T11:39:08.558Z,5.30
2019-01-02T11:41:54.489Z,5.90
2019-01-02T11:45:00.579Z,6.30
2019-01-02T11:47:35.232Z,5.90
2019-01-02T11:50:11.468Z,5.70
2019-01-02T11:52:45.202Z,6.70
2019-01-02T11:55:40.120Z,6.80
2019-01-02T11:58:13.804Z,7.10
2019-01-02T12:00:47.862Z,6.20
2019-01-02T12:03:21.486Z,6.40
2019-01-02T12:05:55.147Z,6.00
2019-01-02T12:08:34.971Z,5.60
2019-01-02T12:11:08.564Z,4.90
2019-01-02T12:13:42.173Z,4.50
2019-01-02T12:16:15.764Z,4.80
2019-01-02T12:18:49.388Z,4.50
2019-01-02T12:21:23.124Z,5.50
2019-01-02T12:23:56.748Z,5.90
2019-01-02T12:26:51.613Z,6.00
2019-01-02T12:29:25.316Z,5.70
2019-01-02T12:32:14.083Z,5.90
2019-01-02T12:34:47.789Z,6.10
2019-01-02T12:37:21.458Z,6.80
2019-01-02T12:39:56.139Z,6.70
2019-01-02T12:42:29.734Z,6.20
2019-01-02T12:45:12.751Z,6.20
2019-01-02T12:48:13.940Z,5.70
2019-01-02T12:50:47.550Z,5.80
2019-01-02T12:53:21.210Z,5.90
2019-01-02T12:56:09.992Z,5.50
2019-01-02T12:58:43.642Z,5.30
2019-01-02T13:01:20.408Z,4.90
2019-01-02T13:04:28.763Z,4.90
2019-01-02T13:07:05.489Z,4.80
2019-01-02T13:09:45.207Z,4.80
2019-01-02T13:12:39.391Z,4.90
2019-01-02T13:15:22.027Z,4.90
2019-01-02T13:18:05.183Z,4.60
2019-01-02T13:20:47.623Z,4.60
2019-01-02T13:23:27.538Z,4.40
2019-01-02T13:26:19.343Z,4.40
2019-01-02T13:29:04.974Z,4.50
2019-01-02T13:31:47.354Z,4.50
2019-01-02T13:34:45.143Z,4.50
2019-01-02T13:37:53.551Z,4.20
2019-01-02T13:40:32.723Z,3.90
2019-01-02T13:43:18.300Z,3.80
2019-01-02T13:45:55.018Z,3.60
2019-01-02T13:48:40.577Z,3.60
2019-01-02T13:51:14.728Z,3.60
2019-01-02T13:53:48.317Z,3.50
2019-01-02T13:56:21.952Z,3.50
2019-01-02T13:58:55.551Z,3.40
2019-01-02T14:01:39.227Z,3.40
2019-01-02T14:04:12.906Z,3.40
2019-01-02T14:07:04.938Z,3.40
2019-01-02T14:09:38.526Z,3.30
2019-01-02T14:12:24.088Z,3.30
2019-01-02T14:14:57.807Z,3.20
2019-01-02T14:17:35.151Z,3.20
2019-01-02T14:20:09.468Z,3.20
2019-01-02T14:22:52.592Z,3.20
2019-01-02T14:25:26.243Z,3.10
2019-01-02T14:28:11.983Z,3.20
2019-01-02T14:30:45.571Z,3.20
2019-01-02T14:33:19.215Z,3.00
2019-01-02T14:35:52.882Z,3.10
2019-01-02T14:38:38.595Z,3.10
2019-01-02T14:41:12.255Z,3.00
2019-01-02T14:43:46.142Z,2.90
2019-01-02T14:46:28.860Z,2.90
2019-01-02T14:49:02.487Z,2.90
2019-01-02T14:51:36.084Z,2.90
2019-01-02T14:54:10.069Z,2.90
2019-01-02T14:56:43.723Z,2.70
2019-01-02T14:59:17.649Z,2.70
2019-01-02T15:01:51.255Z,2.80
2019-01-02T15:04:43.196Z,2.70
2019-01-02T15:07:16.798Z,2.80
2019-01-02T15:10:00.386Z,2.80
2019-01-02T15:12:33.976Z,2.80
2019-01-02T15:15:09.495Z,2.80
2019-01-02T15:17:43.090Z,2.70
2019-01-02T15:20:25.067Z,2.70
2019-01-02T15:22:58.661Z,2.70
2019-01-02T15:25:32.507Z,2.60
2019-01-02T15:28:15.379Z,2.70
2019-01-02T15:30:49.087Z,2.60
2019-01-02T15:33:22.831Z,2.50
2019-01-02T15:35:57.545Z,2.70
2019-01-02T15:38:31.224Z,2.70
2019-01-02T15:41:05.978Z,2.80
2019-01-02T15:43:39.696Z,2.80
2019-01-02T15:46:15.288Z,2.80
2019-01-02T15:48:48.884Z,2.80
2019-01-02T15:51:23.034Z,2.70
2019-01-02T15:54:09.496Z,2.70
2019-01-02T15:56:43.189Z,2.80
2019-01-02T15:59:16.787Z,2.70
2019-01-02T16:01:50.478Z,2.80
2019-01-02T16:04:30.159Z,2.60
2019-01-02T16:07:03.984Z,2.70
2019-01-02T16:09:44.770Z,2.60
2019-01-02T16:12:18.470Z,2.60
2019-01-02T16:14:52.058Z,2.60
2019-01-02T16:17:43.766Z,2.70
2019-01-02T16:20:17.491Z,2.70
2019-01-02T16:22:51.110Z,2.60
2019-01-02T16:25:36.683Z,2.60
2019-01-02T16:28:10.373Z,2.60
2019-01-02T16:30:48.818Z,2.70
2019-01-02T16:33:22.458Z,2.80
2019-01-02T16:35:56.112Z,2.80
2019-01-02T16:38:29.731Z,2.80
2019-01-02T16:41:15.548Z,2.90
2019-01-02T16:43:49.168Z,2.80
2019-01-02T16:46:22.764Z,2.80
2019-01-02T16:48:59.504Z,2.80
2019-01-02T16:51:33.163Z,2.70
2019-01-02T16:54:06.863Z,2.60
2019-01-02T16:56:43.657Z,2.60
2019-01-02T16:59:17.283Z,2.70
2019-01-02T17:01:51.037Z,2.70
2019-01-02T17:04:24.759Z,2.70
2019-01-02T17:07:04.741Z,2.80
2019-01-02T17:09:38.368Z,2.70
2019-01-02T17:12:12.235Z,2.70
2019-01-02T17:14:48.855Z,2.80
2019-01-02T17:17:22.500Z,2.80
2019-01-02T17:20:02.281Z,2.80
2019-01-02T17:22:36.015Z,2.90
2019-01-02T17:25:15.653Z,2.80
2019-01-02T17:27:49.246Z,2.70
2019-01-02T17:30:23.026Z,2.90
2019-01-02T17:32:56.752Z,2.90
2019-01-02T17:35:30.522Z,2.80
2019-01-02T17:38:35.409Z,2.70
2019-01-02T17:41:09.099Z,2.70
2019-01-02T17:43:49.952Z,2.70
2019-01-02T17:46:23.645Z,2.70
2019-01-02T17:48:57.388Z,2.80
2019-01-02T17:51:35.507Z,2.70
2019-01-02T17:54:15.007Z,2.80
2019-01-02T17:56:48.690Z,2.80
2019-01-02T17:59:26.960Z,2.70
2019-01-02T18:02:00.647Z,2.80
2019-01-02T18:04:41.779Z,2.80
2019-01-02T18:07:15.480Z,2.90
2019-01-02T18:09:49.092Z,2.90
2019-01-02T18:12:22.704Z,2.90
2019-01-02T18:14:56.301Z,2.90
2019-01-02T18:17:40.873Z,2.80
2019-01-02T18:20:14.464Z,2.90
2019-01-02T18:22:48.100Z,2.90
2019-01-02T18:25:31.194Z,2.90
2019-01-02T18:28:04.964Z,2.80
2019-01-02T18:30:38.528Z,2.90
2019-01-02T18:33:12.151Z,2.80
2019-01-02T18:35:47.837Z,2.80
2019-01-02T18:38:21.496Z,2.90
2019-01-02T18:40:56.905Z,2.80
2019-01-02T18:43:31.611Z,2.90
2019-01-02T18:46:05.276Z,2.90
2019-01-02T18:48:38.958Z,2.80
2019-01-02T18:51:21.761Z,2.70
2019-01-02T18:53:58.333Z,2.70
2019-01-02T18:56:31.990Z,2.70
2019-01-02T18:59:05.671Z,2.80
2019-01-02T19:01:39.196Z,2.80
2019-01-02T19:04:12.844Z,2.80
2019-01-02T19:06:46.597Z,2.80
2019-01-02T19:09:34.324Z,2.80
2019-01-02T19:12:07.998Z,2.90
2019-01-02T19:14:41.628Z,2.80
2019-01-02T19:17:16.274Z,2.90
2019-01-02T19:19:49.912Z,3.00
2019-01-02T19:22:23.576Z,2.90
2019-01-02T19:24:57.220Z,2.90
2019-01-02T19:27:30.884Z,3.00
2019-01-02T19:30:06.475Z,2.90
2019-01-02T19:32:40.078Z,2.90
2019-01-02T19:35:25.746Z,2.90
2019-01-02T19:37:59.355Z,2.90
2019-01-02T19:40:32.963Z,2.90
2019-01-02T19:43:15.636Z,2.80
2019-01-02T19:45:49.265Z,2.80
2019-01-02T19:48:34.983Z,2.80
2019-01-02T19:51:09.048Z,2.80
2019-01-02T19:53:49.012Z,2.80
2019-01-02T19:56:38.135Z,2.90
2019-01-02T19:59:11.762Z,2.90
2019-01-02T20:01:45.372Z,3.00
2019-01-02T20:04:18.954Z,2.90
2019-01-02T20:06:52.651Z,2.90
2019-01-02T20:09:26.240Z,2.80
2019-01-02T20:12:00.212Z,2.90
2019-01-02T20:14:33.943Z,2.90
2019-01-02T20:17:07.664Z,2.90
2019-01-02T20:19:41.340Z,2.80
2019-01-02T20:22:24.304Z,2.80
2019-01-02T20:24:57.891Z,2.70
2019-01-02T20:27:31.640Z,2.80
2019-01-02T20:30:08.548Z,2.80
2019-01-02T20:32:44.150Z,2.80
2019-01-02T20:35:17.803Z,2.90
2019-01-02T20:37:51.588Z,2.80
2019-01-02T20:40:25.199Z,2.90
2019-01-02T20:43:10.908Z,2.80
2019-01-02T20:45:44.568Z,2.80
2019-01-02T20:48:21.220Z,2.70
2019-01-02T20:50:54.880Z,2.70
2019-01-02T20:53:28.523Z,2.60
2019-01-02T20:56:02.191Z,2.70
2019-01-02T20:58:40.550Z,2.70
2019-01-02T21:01:14.147Z,2.60
2019-01-02T21:03:47.771Z,3.50
2019-01-02T21:06:28.792Z,2.60
2019-01-02T21:09:02.721Z,2.50
2019-01-02T21:11:45.336Z,2.60
2019-01-02T21:14:18.928Z,2.50
2019-01-02T21:16:52.607Z,2.40
2019-01-02T21:19:26.267Z,2.30
2019-01-02T21:22:12.880Z,2.40
2019-01-02T21:24:46.636Z,2.40
2019-01-02T21:27:20.292Z,2.30
2019-01-02T21:29:53.915Z,2.30
2019-01-02T21:32:27.505Z,2.30
2019-01-02T21:35:01.131Z,2.20
2019-01-02T21:37:34.723Z,2.40
2019-01-02T21:40:09.008Z,2.50
2019-01-02T21:42:57.684Z,2.40
2019-01-02T21:45:31.379Z,2.30
2019-01-02T21:48:13.486Z,2.50
2019-01-02T21:50:47.107Z,2.50
2019-01-02T21:53:41.633Z,2.50
2019-01-02T21:56:18.596Z,2.40
2019-01-02T21:58:54.347Z,2.50
2019-01-02T22:01:28.111Z,2.40
2019-01-02T22:04:01.815Z,2.40
2019-01-02T22:06:42.624Z,2.30
2019-01-02T22:09:16.273Z,2.40
2019-01-02T22:11:49.939Z,2.30
2019-01-02T22:14:29.634Z,2.40
2019-01-02T22:17:03.278Z,2.50
2019-01-02T22:19:37.161Z,2.50
2019-01-02T22:22:13.917Z,2.60
2019-01-02T22:24:47.582Z,2.50
2019-01-02T22:27:21.278Z,2.50
2019-01-02T22:30:05.279Z,2.40
2019-01-02T22:32:38.943Z,2.50
2019-01-02T22:35:14.298Z,2.50
2019-01-02T22:37:47.902Z,2.40
2019-01-02T22:40:21.490Z,2.40
2019-01-02T22:42:59.842Z,2.60
2019-01-02T22:45:33.430Z,2.60
2019-01-02T22:48:07.155Z,2.50
2019-01-02T22:50:41.089Z,2.50
2019-01-02T22:53:20.831Z,2.50
2019-01-02T22:55:54.436Z,2.50
2019-01-02T22:58:28.057Z,2.50
2019-01-02T23:01:12.587Z,2.50
2019-01-02T23:03:54.853Z,2.40
2019-01-02T23:06:42.178Z,2.30
2019-01-02T23:12:17.247Z,2.30
2019-01-02T23:15:25.680Z,2.30
2019-01-02T23:18:18.832Z,2.40
2019-01-02T23:23:57.317Z,2.40
2019-01-02T23:29:52.673Z,2.30
2019-01-02T23:32:28.347Z,2.20
2019-01-02T23:35:16.280Z,2.20
2019-01-02T23:40:37.996Z,2.10
2019-01-02T23:43:16.336Z,1.90
2019-01-02T23:46:09.909Z,1.80
2019-01-02T23:51:44.933Z,1.70
2019-01-02T23:54:38.022Z,1.60
2019-01-02T23:57:20.335Z,1.60
2019-01-02T23:59:55.668Z,1.60
